• Join FlightAware (Why Join?)
  • Login
  • US Flag 
11:21PM EDT


 

Airport Tracker/Info


-or-


 

Live Flight TrackerFlight Track Log ✈ DAL268 ✈ 15-Jun-2013 ✈ KSFO - KJFK

Flight Track Log - Related Links

Times and Time Zones

All times are in EDT time to prevent confusion due to time zone crossing. See the DAL268 flight status page for this flight to view local times or setup timezone preferences in your user account.

Time Position Orientation Groundspeed Altitude Reporting Facility
EDT Latitude Longitude Course Direction KTS MPH feet Rate Location/Type
02:30PM 37.6090 -122.3840 188° South 28 32  Level FlightAware
02:31PM 37.6080 -122.3850 218° Southwest 22 25 60 Level FlightAware
02:33PM 37.7119 -122.5856 113° Southeast  Level FlightAware Approximate
02:34PM 37.6475 -122.4526 119° Southeast  Level FlightAware Approximate
02:34PM 37.6070 -122.3840 119° Southeast 20 23  Level FlightAware
02:34PM 37.6060 -122.3830 142° Southeast 15 17 180 Level FlightAware
02:35PM 37.6070 -122.3810 58° Northeast 34 39 180 Level FlightAware
02:35PM 37.6100 -122.3780 38° Northeast 90 104 420 Level FlightAware
02:35PM 37.6250 -122.3690 25° Northeast 170 196 300 1,620 Climbing FlightAware ADS-B
02:36PM 37.6389 -122.3590 30° Northeast 179 206 1,200 2,580 Climbing FlightAware ADS-B
02:36PM 37.6410 -122.3570 37° Northeast 182 209 1,300 1,680 Climbing FlightAware ADS-B
02:36PM 37.6438 -122.3540 40° Northeast 184 212 1,400 1,620 Climbing FlightAware ADS-B
02:36PM 37.6524 -122.3420 48° Northeast 204 235 1,800 1,560 Climbing FlightAware ADS-B
02:36PM 37.6631 -122.3280 46° Northeast 220 253 2,200 1,680 Climbing FlightAware ADS-B
02:36PM 37.6753 -122.3130 44° Northeast 243 280 2,700 1,740 Climbing FlightAware ADS-B
02:37PM 37.6876 -122.2970 46° Northeast 260 299 3,100 2,160 Climbing FlightAware ADS-B
02:37PM 37.7005 -122.2800 46° Northeast 267 307 3,800 3,060 Climbing FlightAware ADS-B
02:37PM 37.7167 -122.2600 44° Northeast 270 311 4,800 3,060 Climbing FlightAware ADS-B
02:38PM 37.7311 -122.2450 39° Northeast 274 315 5,500 2,820 Climbing FlightAware ADS-B
02:38PM 37.7544 -122.2230 37° Northeast 278 320 6,600 3,060 Climbing FlightAware ADS-B
02:38PM 37.7719 -122.2060 38° Northeast 279 321 7,500 3,180 Climbing FlightAware ADS-B
02:38PM 37.7876 -122.1920 35° Northeast 281 323 8,300 3,000 Climbing FlightAware ADS-B
02:39PM 37.8052 -122.1750 37° Northeast 284 327 9,100 2,760 Climbing FlightAware ADS-B
02:39PM 37.8209 -122.1590 39° Northeast 287 330 9,800 1,980 Climbing FlightAware ADS-B
02:40PM 37.8559 -122.1250 37° Northeast 315 362 10,700 1,500 Climbing FlightAware ADS-B
02:40PM 37.8937 -122.0890 37° Northeast 348 400 11,400 1,140 Climbing FlightAware ADS-B
02:41PM 37.9343 -122.0500 37° Northeast 378 435 11,900 1,620 Climbing FlightAware ADS-B
02:41PM 37.9771 -122.0070 38° Northeast 389 448 13,100 2,340 Climbing FlightAware ADS-B
02:42PM 38.0217 -121.9640 37° Northeast 396 456 14,300 2,160 Climbing FlightAware ADS-B
02:42PM 38.0719 -121.9150 38° Northeast 406 467 15,500 2,100 Climbing FlightAware ADS-B
02:43PM 38.1460 -121.8430 37° Northeast 417 480 17,300 2,100 Climbing FlightAware
02:44PM 38.2180 -121.7730 37° Northeast 425 489 18,900 1,980 Climbing FlightAware
02:44PM 38.2880 -121.7050 37° Northeast 437 503 20,300 1,620 Climbing FlightAware
02:46PM 38.3860 -121.6090 38° Northeast 449 517 22,100 1,620 Climbing FlightAware
02:46PM 38.4730 -121.5020 44° Northeast 460 529 23,600 1,680 Climbing FlightAware
02:47PM 38.5260 -121.4120 53° Northeast 469 540 24,600 1,440 Climbing FlightAware ADS-B
02:48PM 38.5797 -121.3190 54° Northeast 471 542 25,600 1,380 Climbing FlightAware ADS-B
02:48PM 38.6193 -121.2500 54° Northeast 482 555 26,300 1,260 Climbing FlightAware ADS-B
02:49PM 38.6640 -121.1730 53° Northeast 486 559 27,000 1,200 Climbing FlightAware ADS-B
02:49PM 38.7129 -121.0880 54° Northeast 490 564 27,700 1,140 Climbing FlightAware ADS-B
02:50PM 38.7697 -120.9900 53° Northeast 497 572 28,500 1,320 Climbing FlightAware ADS-B
02:51PM 38.8640 -120.8270 53° Northeast 500 575 30,200 1,440 Climbing FlightAware
02:52PM 38.9230 -120.7250 53° Northeast 499 574 31,200 1,380 Climbing FlightAware
02:53PM 38.9840 -120.6190 53° Northeast 496 571 32,200 1,440 Climbing FlightAware
02:53PM 39.0350 -120.5300 54° Northeast 493 567 33,200 1,380 Climbing FlightAware
02:54PM 39.0940 -120.4280 53° Northeast 491 565 34,100 1,080 Climbing FlightAware
02:55PM 39.1500 -120.3310 53° Northeast 491 565 34,800 540 Climbing FlightAware
02:56PM 39.2220 -120.2040 54° Northeast 494 568 35,000 120 Climbing FlightAware
02:56PM 39.2830 -120.0970 54° Northeast 493 567 35,000 480 Level FlightAware
02:57PM 39.3330 -119.9960 57° Northeast 484 557 35,700 1,020 Climbing FlightAware
02:58PM 39.3700 -119.9090 61° Northeast 486 559 36,400 840 Climbing FlightAware
02:58PM 39.4150 -119.8040 61° Northeast 487 560 36,900 420 Climbing FlightAware
02:59PM 39.4550 -119.7150 60° Northeast 488 562 37,000 60 Climbing FlightAware
03:00PM 39.5040 -119.6050 60° Northeast 485 558 37,000  Level FlightAware
03:01PM 39.5350 -119.5340 60° Northeast 486 559 37,000  Level FlightAware
03:02PM 39.6130 -119.3490 61° Northeast 486 559 37,000  Level FlightAware
03:02PM 39.6460 -119.2710 61° Northeast 486 559 37,000  Level FlightAware
03:03PM 39.6910 -119.1670 61° Northeast 486 559 37,000  Level FlightAware
03:04PM 39.7240 -119.0880 61° Northeast 486 559 37,000  Level FlightAware
03:04PM 39.8020 -118.8950 62° Northeast 488 562 37,000  Level FlightAware
03:05PM 39.8180 -118.8570 61° Northeast 488 562 37,000  Level FlightAware
03:07PM 39.8760 -118.7140 62° Northeast 488 562 37,000  Level FlightAware
03:07PM 39.9090 -118.6340 62° Northeast 488 562 37,000  Level FlightAware
03:08PM 39.9530 -118.5260 62° Northeast 488 562 37,000  Level FlightAware
03:08PM 39.9840 -118.4510 62° Northeast 488 562 37,000  Level FlightAware
03:09PM 40.0260 -118.3470 62° Northeast 488 562 37,000  Level FlightAware
03:10PM 40.0580 -118.2670 62° Northeast 488 562 37,000  Level FlightAware
03:11PM 40.1360 -118.0770 62° Northeast 488 562 37,000  Level FlightAware
03:12PM 40.1670 -117.9990 63° Northeast 488 562 37,000  Level FlightAware
03:13PM 40.2090 -117.8970 62° Northeast 488 562 37,000  Level FlightAware
03:13PM 40.2410 -117.8170 62° Northeast 488 562 37,000  Level FlightAware
03:14PM 40.2840 -117.7110 62° Northeast 488 562 37,000  Level FlightAware
03:15PM 40.3260 -117.6080 62° Northeast 488 562 37,000  Level FlightAware
03:15PM 40.3570 -117.5310 62° Northeast 488 562 37,000  Level FlightAware
03:16PM 40.5142 -117.1292 62° Northeast 486 559 37,000  Level Salt Lake Center
03:17PM 40.5842 -116.9478 63° Northeast 488 562 37,000  Level Salt Lake Center
03:18PM 40.6442 -116.7939 63° Northeast 487 560 37,000  Level Salt Lake Center
03:19PM 40.7033 -116.6406 63° Northeast 486 559 37,000  Level Salt Lake Center
03:20PM 40.7700 -116.4614 64° Northeast 488 562 37,000  Level Salt Lake Center
03:21PM 40.8283 -116.3075 63° Northeast 488 562 37,100  Climbing Salt Lake Center
03:22PM 40.8972 -116.1303 63° Northeast 487 560 37,000 -60 Descending Salt Lake Center
03:23PM 40.9547 -115.9781 63° Northeast 485 558 37,000  Level Salt Lake Center
03:24PM 41.0206 -115.8006 64° Northeast 481 554 37,000  Level Salt Lake Center
03:25PM 41.0775 -115.6478 64° Northeast 483 556 37,000  Level Salt Lake Center
03:26PM 41.1342 -115.4950 64° Northeast 482 555 37,000  Level Salt Lake Center
03:27PM 41.1997 -115.3172 64° Northeast 481 554 37,000  Level Salt Lake Center
03:28PM 41.2550 -115.1642 64° Northeast 480 552 37,000  Level Salt Lake Center
03:29PM 41.3189 -114.9867 64° Northeast 477 549 37,000  Level Salt Lake Center
03:30PM 41.3750 -114.8314 64° Northeast 477 549 37,000  Level Salt Lake Center
03:31PM 41.4333 -114.6708 64° Northeast 481 554 37,000  Level Salt Lake Center
03:32PM 41.4908 -114.5114 64° Northeast 480 552 37,000  Level Salt Lake Center
03:38PM 41.8070 -113.4660 64° Northeast 490 564 37,000  Level FlightAware
03:39PM 41.8390 -113.3470 70° East 494 568 37,000  Level FlightAware
03:40PM 41.8640 -113.2540 70° East 494 568 37,000  Level FlightAware
03:40PM 41.8920 -113.1490 70° East 494 568 37,000  Level FlightAware
03:41PM 41.9240 -113.0310 70° East 494 568 37,000  Level FlightAware
03:42PM 41.9490 -112.9400 70° East 494 568 37,000  Level FlightAware
03:43PM 41.9910 -112.7830 70° East 494 568 37,000  Level FlightAware
03:43PM 42.0150 -112.6970 69° East 494 568 37,000  Level FlightAware
03:44PM 42.0470 -112.5770 70° East 494 568 37,000  Level FlightAware
03:45PM 42.0861 -112.3889 70° East 507 583 37,000  Level Salt Lake Center
03:46PM 42.1308 -112.2083 71° East 508 585 37,000  Level Salt Lake Center
03:47PM 42.1761 -112.0278 71° East 508 585 37,000  Level Salt Lake Center
03:48PM 42.2200 -111.8456 72° East 510 587 37,000  Level Salt Lake Center
03:49PM 42.2731 -111.6264 72° East 512 589 37,000  Level Salt Lake Center
03:50PM 42.3178 -111.4442 72° East 512 589 37,000  Level Salt Lake Center
03:51PM 42.3606 -111.2617 72° East 511 588 37,000  Level Salt Lake Center
03:52PM 42.4042 -111.0783 72° East 511 588 37,000  Level Salt Lake Center
03:53PM 42.4508 -110.8817 72° East 510 587 37,000  Level Salt Lake Center
03:54PM 42.4917 -110.7061 72° East 510 587 37,000  Level Salt Lake Center
03:55PM 42.5392 -110.5008 73° East 510 587 37,000  Level Salt Lake Center
03:56PM 42.5792 -110.3228 73° East 513 590 37,000  Level Salt Lake Center
03:57PM 42.6261 -110.1167 73° East 512 589 37,000  Level Salt Lake Center
03:58PM 42.6667 -109.9397 73° East 512 589 37,000  Level Salt Lake Center
03:59PM 42.7067 -109.7611 73° East 514 592 37,000  Level Salt Lake Center
04:00PM 42.7533 -109.5497 73° East 519 597 37,000  Level Salt Lake Center
04:01PM 42.7933 -109.3686 73° East 521 600 37,000  Level Salt Lake Center
04:02PM 42.8392 -109.1589 73° East 518 596 37,000  Level Salt Lake Center
04:03PM 42.8772 -108.9833 73° East 510 587 37,000  Level Salt Lake Center
04:04PM 42.9217 -108.7703 74° East 520 598 37,000  Level Salt Lake Center
04:05PM 42.9603 -108.5897 74° East 519 597 37,000  Level Salt Lake Center
04:06PM 43.0019 -108.3828 75° East 515 593 37,000  Level Salt Lake Center
04:07PM 43.0394 -108.2008 74° East 518 596 37,000  Level Salt Lake Center
04:08PM 43.0767 -108.0197 74° East 518 596 37,000  Level Salt Lake Center
04:09PM 43.1183 -107.8078 75° East 517 595 37,000  Level Salt Lake Center
04:10PM 43.1556 -107.6306 74° East 512 589 37,000  Level Salt Lake Center
04:11PM 43.1975 -107.4192 75° East 515 593 37,000  Level Salt Lake Center
04:12PM 43.2336 -107.2372 75° East 518 596 37,000  Level Salt Lake Center
04:13PM 43.2753 -107.0247 75° East 518 596 37,000  Level Salt Lake Center
04:15PM 43.3114 -106.8386 75° East 516 594 37,000  Level Salt Lake Center
04:15PM 43.3358 -106.7142 75° East 520 598 37,000  Level Denver Center
04:16PM 43.3703 -106.5303 75° East 518 596 37,000  Level Denver Center
04:17PM 43.4108 -106.3153 75° East 521 600 37,000  Level Denver Center
04:18PM 43.4444 -106.1306 76° East 518 596 37,000  Level Denver Center
04:19PM 43.4853 -105.9147 75° East 519 597 37,000  Level Denver Center
04:20PM 43.5192 -105.7272 76° East 523 602 37,000  Level Denver Center
04:21PM 43.5539 -105.5394 76° East 526 605 37,000  Level Denver Center
04:23PM 43.5928 -105.3211 76° East 525 604 37,000  Level Denver Center
04:24PM 43.6328 -105.1011 76° East 526 605 37,000  Level Denver Center
04:25PM 43.6694 -104.8808 77° East 526 605 37,000  Level Denver Center
04:26PM 43.7025 -104.6906 76° East 529 609 37,000  Level Denver Center
04:27PM 43.7397 -104.4717 77° East 525 604 37,000  Level Denver Center
04:28PM 43.7719 -104.2822 77° East 526 605 37,000  Level Denver Center
04:29PM 43.8025 -104.0958 77° East 522 601 37,000  Level Denver Center
04:30PM 43.8389 -103.8736 77° East 527 606 37,000  Level Denver Center
04:31PM 43.8692 -103.6844 77° East 526 605 37,000  Level Denver Center
04:32PM 43.9053 -103.4611 77° East 529 609 37,000  Level Denver Center
04:33PM 43.9375 -103.2744 76° East 523 602 37,000  Level Denver Center
04:34PM 43.9678 -103.0847 77° East 523 602 37,000  Level Denver Center
04:35PM 44.0072 -102.8631 76° East 528 608 37,000  Level Denver Center
04:36PM 44.0408 -102.6861 75° East 526 605 37,000  Level Denver Center
04:37PM 44.0856 -102.4494 75° East 527 606 37,000  Level Denver Center
04:38PM 44.1247 -102.2528 74° East 530 610 37,000  Level Denver Center
04:39PM 44.1606 -102.0531 76° East 532 612 37,000  Level Denver Center
04:40PM 44.1978 -101.8533 75° East 534 615 37,000  Level Denver Center
04:41PM 44.2342 -101.6522 76° East 536 617 37,000  Level Denver Center
04:42PM 44.2706 -101.4503 76° East 537 618 37,000  Level Denver Center
04:43PM 44.2947 -101.3322 74° East 536 617 37,000  Level Minneapolis Center
04:44PM 44.3142 -101.1286 82° East 533 613 37,000  Level Minneapolis Center
04:44PM 44.3086 -101.0031 93° East 527 606 37,000  Level Denver Center
04:45PM 44.3075 -100.8825 91° East 530 610 37,000  Level Minneapolis Center
04:46PM 44.3033 -100.6372 91° East 530 610 37,000  Level Minneapolis Center
04:47PM 44.2983 -100.4319 92° East 531 611 37,000  Level Minneapolis Center
04:48PM 44.2942 -100.2269 92° East 532 612 37,000  Level Minneapolis Center
04:49PM 44.2878 -100.0222 92° East 532 612 37,000  Level Minneapolis Center
04:50PM 44.2819 -99.8186 92° East 532 612 37,000  Level Minneapolis Center
04:51PM 44.2747 -99.5736 92° East 531 611 37,000  Level Minneapolis Center
04:52PM 44.2675 -99.3714 93° East 527 606 37,000  Level Minneapolis Center
04:57PM 44.2290 -98.3460 93° East 521 600 37,000  Level FlightAware
04:58PM 44.2230 -98.2150 94° East 520 598 37,000  Level FlightAware
04:59PM 44.2170 -98.0790 93° East 520 598 37,000  Level FlightAware
04:59PM 44.2100 -97.9250 94° East 519 597 37,000  Level FlightAware
05:00PM 44.2040 -97.8010 94° East 519 597 37,000  Level FlightAware
05:01PM 44.1980 -97.6630 93° East 520 598 37,000  Level FlightAware
05:01PM 44.1900 -97.5170 94° East 520 598 37,000  Level FlightAware
05:02PM 44.1830 -97.3670 94° East 520 598 37,000  Level FlightAware
05:03PM 44.1760 -97.2440 94° East 519 597 37,000  Level FlightAware
05:03PM 44.1680 -97.0910 94° East 519 597 37,000  Level FlightAware
05:04PM 44.1590 -96.9010 94° East 520 598 37,000  Level FlightAware
05:05PM 44.1520 -96.7710 94° East 520 598 37,000  Level FlightAware
05:06PM 44.1440 -96.6260 94° East 519 597 37,000  Level FlightAware
05:06PM 44.1370 -96.5070 95° East 519 597 37,000  Level FlightAware
05:07PM 44.1290 -96.3690 95° East 518 596 37,000  Level FlightAware
05:08PM 44.1200 -96.2180 95° East 518 596 37,000  Level FlightAware
05:09PM 44.1110 -96.0660 95° East 517 595 37,000  Level FlightAware
05:09PM 44.1040 -95.9440 95° East 516 594 37,000  Level FlightAware
05:10PM 44.0940 -95.7850 95° East 514 592 37,000  Level FlightAware
05:11PM 44.0860 -95.6620 95° East 515 593 37,000  Level FlightAware
05:11PM 44.0760 -95.5100 95° East 516 594 37,000  Level FlightAware
05:12PM 44.0670 -95.3790 95° East 516 594 37,000 180 Level FlightAware
05:13PM 44.0580 -95.2360 95° East 517 595 37,300 600 Climbing FlightAware
05:13PM 44.0500 -95.1230 96° East 515 593 37,900 480 Climbing FlightAware
05:14PM 44.0390 -94.9650 95° East 511 588 38,000 240 Climbing FlightAware
05:15PM 44.0290 -94.8200 95° East 510 587 38,300 540 Climbing FlightAware
05:16PM 44.0190 -94.6860 96° East 512 589 38,800 480 Climbing FlightAware
05:16PM 44.0100 -94.5590 96° East 515 593 39,000 120 Climbing FlightAware
05:17PM 43.9990 -94.4110 96° East 516 594 39,000  Level FlightAware
05:18PM 43.9880 -94.2730 96° East 512 589 39,000  Level FlightAware
05:18PM 43.9780 -94.1430 96° East 512 589 39,000  Level FlightAware
05:19PM 43.9670 -94.0050 96° East 511 588 39,000  Level FlightAware
05:20PM 43.9560 -93.8690 96° East 511 588 39,000  Level FlightAware
05:20PM 43.9450 -93.7250 96° East 512 589 39,000  Level FlightAware
05:21PM 43.9350 -93.6010 96° East 511 588 39,000  Level FlightAware
05:22PM 43.9230 -93.4580 97° East 511 588 39,000  Level FlightAware
05:23PM 43.9110 -93.3170 97° East 511 588 39,000  Level FlightAware
05:23PM 43.8990 -93.1840 97° East 512 589 39,000  Level FlightAware
05:24PM 43.8870 -93.0410 97° East 514 592 39,000  Level FlightAware
05:25PM 43.8750 -92.9110 97° East 514 592 39,000  Level FlightAware
05:25PM 43.8640 -92.7780 96° East 516 594 39,000  Level FlightAware
05:26PM 43.8510 -92.6360 97° East 518 596 39,000  Level FlightAware
05:27PM 43.8390 -92.5100 97° East 520 598 39,000  Level FlightAware
05:27PM 43.8250 -92.3530 97° East 521 600 39,000  Level FlightAware
05:28PM 43.8120 -92.2210 98° East 523 602 39,000  Level FlightAware
05:29PM 43.7980 -92.0740 97° East 525 604 39,000  Level FlightAware
05:30PM 43.7850 -91.9410 98° East 526 605 39,000  Level FlightAware
05:30PM 43.7710 -91.7960 98° East 523 602 39,000  Level FlightAware
05:31PM 43.7570 -91.6570 98° East 521 600 39,000  Level FlightAware
05:32PM 43.7440 -91.5260 98° East 521 600 39,000  Level FlightAware
05:32PM 43.7300 -91.3870 98° East 520 598 39,000  Level FlightAware
05:33PM 43.7150 -91.2490 99° East 519 597 39,000  Level FlightAware
05:34PM 43.7000 -91.1030 98° East 519 597 39,000  Level FlightAware
05:34PM 43.6860 -90.9740 98° East 519 597 39,000  Level FlightAware
05:36PM 43.6620 -90.7470 98° East 518 596 39,000  Level FlightAware
05:36PM 43.6470 -90.6100 99° East 516 594 39,000 -600 Level FlightAware
05:37PM 43.6320 -90.4730 99° East 519 597 38,200 -1,260 Descending FlightAware
05:38PM 43.6150 -90.3270 99° East 522 601 37,200 -900 Descending FlightAware
05:38PM 43.6010 -90.2010 99° East 520 598 37,000 -180 Descending FlightAware
05:39PM 43.5850 -90.0580 99° East 521 600 37,000  Level FlightAware
05:40PM 43.5700 -89.9280 99° East 520 598 37,000  Level FlightAware
05:41PM 43.5470 -89.7450 100° East 519 597 37,000  Level FlightAware
05:41PM 43.5290 -89.6160 101° East 520 598 37,000  Level FlightAware
05:42PM 43.5050 -89.4330 100° East 521 600 37,000  Level FlightAware
05:43PM 43.4850 -89.2920 101° East 522 601 37,000  Level FlightAware
05:44PM 43.4670 -89.1600 101° East 523 602 37,000  Level FlightAware
05:44PM 43.4480 -89.0190 100° East 522 601 37,000  Level FlightAware
05:45PM 43.4310 -88.8990 101° East 522 601 37,000  Level FlightAware
05:46PM 43.4130 -88.7720 101° East 521 600 37,000  Level FlightAware
05:47PM 43.3860 -88.5770 101° East 518 596 37,000  Level FlightAware
05:47PM 43.3660 -88.4400 101° East 515 593 37,000  Level FlightAware
05:48PM 43.3450 -88.2960 101° East 513 590 37,000  Level FlightAware
05:49PM 43.3260 -88.1670 101° East 512 589 37,000  Level FlightAware
05:50PM 43.3070 -88.0360 101° East 508 585 37,000  Level FlightAware
05:50PM 43.2870 -87.9010 101° East 508 585 37,000  Level FlightAware
05:51PM 43.2670 -87.7670 102° East 507 583 37,000  Level FlightAware
05:52PM 43.2460 -87.6310 102° East 506 582 37,000  Level FlightAware
05:52PM 43.2280 -87.5130 102° East 505 581 37,000  Level FlightAware
05:53PM 43.2060 -87.3720 102° East 504 580 37,000  Level FlightAware
05:54PM 43.1860 -87.2440 102° East 503 579 37,000  Level FlightAware
05:54PM 43.1660 -87.1170 102° East 503 579 37,000  Level FlightAware
05:55PM 43.1500 -87.0120 102° East 503 579 37,000  Level FlightAware
05:56PM 43.1250 -86.8570 102° East 502 578 37,000  Level FlightAware
05:57PM 43.0980 -86.6850 102° East 501 577 37,000  Level FlightAware
05:58PM 43.0750 -86.5420 102° East 501 577 37,000  Level FlightAware
05:58PM 43.0530 -86.4120 103° East 501 577 37,000  Level FlightAware
05:59PM 43.0340 -86.2950 102° East 502 578 37,000  Level FlightAware
06:00PM 43.0110 -86.1550 103° East 503 579 37,000  Level FlightAware
06:00PM 42.9910 -86.0350 103° East 504 580 37,000  Level FlightAware
06:01PM 42.9620 -85.8640 103° East 506 582 37,000  Level FlightAware
06:02PM 42.9400 -85.7320 103° East 507 583 37,000  Level FlightAware
06:03PM 42.9190 -85.6110 103° East 508 585 37,000  Level FlightAware
06:03PM 42.8950 -85.4730 103° East 509 586 37,000  Level FlightAware
06:04PM 42.8740 -85.3510 103° East 510 587 37,000  Level FlightAware
06:05PM 42.8490 -85.2100 104° East 512 589 37,000 480 Level FlightAware
06:05PM 42.8270 -85.0860 104° East 505 581 37,700 1,140 Climbing FlightAware
06:06PM 42.8030 -84.9500 103° East 503 579 38,600 900 Climbing FlightAware
06:07PM 42.7820 -84.8310 103° East 506 582 39,000 300 Climbing FlightAware
06:07PM 42.7600 -84.7100 104° East 507 583 39,000  Level FlightAware
06:08PM 42.7360 -84.5770 104° East 511 588 39,000  Level FlightAware
06:09PM 42.7100 -84.4330 104° East 514 592 39,000  Level FlightAware
06:09PM 42.6890 -84.3200 104° East 516 594 39,000  Level FlightAware
06:10PM 42.6600 -84.1620 104° East 519 597 39,000  Level FlightAware
06:11PM 42.6410 -84.0580 104° East 520 598 39,000  Level FlightAware
06:12PM 42.6150 -83.9210 104° East 522 601 39,000  Level FlightAware
06:12PM 42.5880 -83.7790 104° East 521 600 39,000  Level FlightAware
06:13PM 42.5620 -83.6400 104° East 520 598 39,000  Level FlightAware
06:14PM 42.5350 -83.5000 105° East 517 595 39,000  Level FlightAware
06:14PM 42.5110 -83.3750 105° East 516 594 39,000  Level FlightAware
06:15PM 42.4860 -83.2460 105° East 514 592 39,000  Level FlightAware
06:16PM 42.4610 -83.1200 105° East 515 593 39,000  Level FlightAware
06:17PM 42.4360 -82.9930 105° East 514 592 39,000  Level FlightAware
06:17PM 42.4090 -82.8550 105° East 513 590 39,000  Level FlightAware
06:18PM 42.3850 -82.7240 104° East 513 590 39,000  Level FlightAware
06:19PM 42.3740 -82.5940 96° East 515 593 39,000  Level FlightAware
06:19PM 42.3690 -82.4590 93° East 514 592 39,000  Level FlightAware
06:20PM 42.3640 -82.3210 93° East 514 592 39,000  Level FlightAware
06:21PM 42.3590 -82.1900 93° East 513 590 39,000  Level FlightAware
06:21PM 42.3530 -82.0600 94° East 511 588 39,000  Level FlightAware
06:22PM 42.3470 -81.9290 94° East 508 585 39,000  Level FlightAware
06:23PM 42.3420 -81.8130 93° East 504 580 39,000  Level FlightAware
06:23PM 42.3360 -81.6830 94° East 501 577 39,000  Level FlightAware
06:24PM 42.3290 -81.5390 94° East 498 573 39,000  Level FlightAware
06:25PM 42.3200 -81.3490 94° East 492 566 39,000  Level FlightAware
06:26PM 42.3140 -81.2200 94° East 489 563 39,000  Level FlightAware
06:27PM 42.3070 -81.0800 94° East 486 559 39,000  Level FlightAware
06:28PM 42.2990 -80.9280 94° East 486 559 39,000  Level FlightAware
06:28PM 42.2920 -80.8040 94° East 486 559 39,000  Level FlightAware
06:29PM 42.2840 -80.6620 94° East 487 560 39,000  Level FlightAware
06:30PM 42.2770 -80.5320 94° East 488 562 39,000  Level FlightAware
06:30PM 42.2710 -80.4180 94° East 489 563 39,000  Level FlightAware
06:31PM 42.2630 -80.2910 95° East 491 565 39,000  Level FlightAware
06:32PM 42.2550 -80.1500 94° East 493 567 39,000  Level FlightAware
06:33PM 42.2470 -80.0140 94° East 495 570 39,000  Level FlightAware
06:33PM 42.2390 -79.8910 95° East 496 571 39,000  Level FlightAware
06:34PM 42.2300 -79.7500 95° East 497 572 39,000  Level FlightAware
06:35PM 42.2210 -79.6050 95° East 498 573 39,000  Level FlightAware
06:35PM 42.2120 -79.4720 95° East 497 572 39,000  Level FlightAware
06:36PM 42.2040 -79.3510 95° East 497 572 39,000  Level FlightAware
06:37PM 42.1990 -79.2740 95° East 496 571 39,000  Level FlightAware
06:37PM 42.1830 -79.1070 97° East 501 577 39,000  Level FlightAware
06:38PM 42.1520 -78.9740 107° East 506 582 39,000  Level FlightAware
06:39PM 42.1190 -78.8440 109° East 505 581 39,000  Level FlightAware
06:40PM 42.0810 -78.6900 108° East 503 579 39,000  Level FlightAware
06:40PM 42.0500 -78.5710 109° East 503 579 39,000  Level FlightAware
06:41PM 42.0160 -78.4370 109° East 503 579 39,000  Level FlightAware
06:42PM 41.9890 -78.3310 109° East 502 578 39,000  Level FlightAware
06:43PM 41.9520 -78.1880 109° East 500 575 39,000  Level FlightAware
06:43PM 41.9200 -78.0650 109° East 499 574 39,000  Level FlightAware
06:44PM 41.8880 -77.9410 109° East 498 573 39,000  Level FlightAware
06:45PM 41.8590 -77.8280 109° East 499 574 39,000  Level FlightAware
06:45PM 41.8270 -77.7070 110° East 499 574 39,000  Level FlightAware
06:46PM 41.7950 -77.5860 109° East 499 574 39,000  Level FlightAware
06:47PM 41.7620 -77.4600 109° East 498 573 39,000  Level FlightAware
06:48PM 41.7300 -77.3430 110° East 498 573 39,000  Level FlightAware
06:48PM 41.6960 -77.2150 110° East 500 575 39,000  Level FlightAware
06:49PM 41.6705 -77.1208 110° East 499 574 39,000  Level FlightAware ADS-B
06:50PM 41.6338 -76.9851 110° East 501 577 39,000  Level FlightAware ADS-B
06:50PM 41.6094 -76.8954 110° East 501 577 39,000  Level FlightAware ADS-B
06:51PM 41.5848 -76.8054 110° East 502 578 39,000  Level FlightAware ADS-B
06:51PM 41.5569 -76.7035 110° East 503 579 39,000  Level FlightAware ADS-B
06:52PM 41.5306 -76.6079 110° East 503 579 39,000  Level FlightAware ADS-B
06:52PM 41.5066 -76.5208 110° East 504 580 39,000  Level FlightAware ADS-B
06:53PM 41.4820 -76.4321 110° East 504 580 39,000 -540 Level FlightAware ADS-B
06:53PM 41.4562 -76.3394 110° East 507 583 38,500 -1,380 Descending FlightAware ADS-B
06:54PM 41.4306 -76.2478 110° East 515 593 37,600 -1,500 Descending FlightAware ADS-B
06:54PM 41.4029 -76.1490 110° East 518 596 36,900 -1,500 Descending FlightAware ADS-B
06:55PM 41.3769 -76.0565 111° Southeast 520 598 36,000 -2,460 Descending FlightAware ADS-B
06:55PM 41.3505 -75.9626 111° Southeast 525 604 34,400 -3,060 Descending FlightAware ADS-B
06:56PM 41.3220 -75.8618 111° Southeast 529 609 32,700 -3,120 Descending FlightAware ADS-B
06:56PM 41.2941 -75.7639 111° Southeast 532 612 31,000 -3,300 Descending FlightAware ADS-B
06:57PM 41.2648 -75.6667 112° Southeast 536 617 29,200 -3,420 Descending FlightAware ADS-B
06:57PM 41.2332 -75.5701 113° Southeast 537 618 27,400 -3,540 Descending FlightAware ADS-B
06:58PM 41.2030 -75.4798 114° Southeast 532 612 25,600 -3,300 Descending FlightAware ADS-B
06:59PM 41.1717 -75.3864 114° Southeast 520 598 24,000 -2,400 Descending FlightAware ADS-B
06:59PM 41.1418 -75.2979 114° Southeast 516 594 23,100 -1,020 Descending FlightAware ADS-B
07:00PM 41.1127 -75.2116 114° Southeast 511 588 23,000 -120 Descending FlightAware ADS-B
07:00PM 41.0826 -75.1226 114° Southeast 514 592 23,000  Level FlightAware ADS-B
07:01PM 41.0513 -75.0306 114° Southeast 514 592 23,000 -240 Level FlightAware ADS-B
07:01PM 41.0186 -74.9346 114° Southeast 510 587 22,800 -720 Descending FlightAware ADS-B
07:01PM 41.0107 -74.9087 112° Southeast 508 585 22,500 -2,160 Descending FlightAware ADS-B
07:02PM 40.9942 -74.8375 107° East 500 575 21,600 -1,680 Descending FlightAware ADS-B
07:02PM 40.9819 -74.7462 100° East 492 566 21,000 -1,020 Descending FlightAware ADS-B
07:03PM 40.9723 -74.6575 98° East 488 562 20,600 -900 Descending FlightAware ADS-B
07:03PM 40.9628 -74.5679 98° East 485 558 20,100 -1,020 Descending FlightAware ADS-B
07:04PM 40.9534 -74.4791 98° East 482 555 19,600 -1,020 Descending FlightAware ADS-B
07:04PM 40.9438 -74.3909 98° East 482 555 19,100 -600 Descending FlightAware ADS-B
07:05PM 40.9341 -74.3036 98° East 465 535 19,000 -120 Descending FlightAware ADS-B
07:05PM 40.9255 -74.2294 99° East 430 495 19,000  Level FlightAware ADS-B
07:05PM 40.9210 -74.2036 103° East 421 484 19,000  Level FlightAware ADS-B
07:05PM 40.9162 -74.1852 109° East 413 475 19,000  Level FlightAware ADS-B
07:06PM 40.9125 -74.1739 113° Southeast 408 470 19,000  Level FlightAware ADS-B
07:06PM 40.9066 -74.1592 118° Southeast 403 464 19,000 -600 Level FlightAware ADS-B
07:06PM 40.9024 -74.1505 123° Southeast 399 459 18,900 -780 Descending FlightAware ADS-B
07:06PM 40.8983 -74.1428 125° Southeast 397 457 18,900 -600 Level FlightAware ADS-B
07:06PM 40.8907 -74.1307 130° Southeast 393 452 18,800 -1,200 Descending FlightAware ADS-B
07:06PM 40.8805 -74.1178 136° Southeast 389 448 18,600 -1,200 Descending FlightAware ADS-B
07:06PM 40.8775 -74.1146 141° Southeast 386 444 18,600 -720 Level FlightAware ADS-B
07:06PM 40.8674 -74.1052 145° Southeast 381 438 18,500 -1,020 Descending FlightAware ADS-B
07:06PM 40.8593 -74.0989 150° Southeast 377 434 18,400 -1,380 Descending FlightAware ADS-B
07:07PM 40.8187 -74.0721 153° Southeast 369 425 17,800 -1,440 Descending FlightAware ADS-B
07:07PM 40.8128 -74.0682 153° Southeast 369 425 17,700 -1,500 Descending FlightAware ADS-B
07:07PM 40.7695 -74.0404 154° Southeast 367 422 17,000 -1,500 Descending FlightAware ADS-B
07:07PM 40.7638 -74.0368 154° Southeast 367 422 16,900 -1,620 Descending FlightAware ADS-B
07:08PM 40.7237 -74.0113 154° Southeast 361 415 16,200 -1,380 Descending FlightAware ADS-B
07:08PM 40.6785 -73.9829 155° Southeast 354 407 15,600 -1,500 Descending FlightAware ADS-B
07:09PM 40.6341 -73.9551 155° Southeast 349 402 14,700 -1,920 Descending FlightAware ADS-B
07:09PM 40.5870 -73.9246 154° Southeast 340 391 13,600 -2,100 Descending FlightAware ADS-B
07:10PM 40.5569 -73.9038 152° Southeast 333 383 12,800 -2,280 Descending FlightAware ADS-B
07:10PM 40.5481 -73.8951 143° Southeast 332 382 12,500 -2,220 Descending FlightAware ADS-B
07:10PM 40.5151 -73.8536 136° Southeast 325 374 11,400 -2,160 Descending FlightAware ADS-B
07:11PM 40.4800 -73.8083 136° Southeast 313 360 10,200 -2,160 Descending FlightAware ADS-B
07:11PM 40.4642 -73.7882 136° Southeast 308 354 9,700 -2,280 Descending FlightAware ADS-B
07:11PM 40.4444 -73.7621 135° Southeast 304 350 8,900 -2,280 Descending FlightAware ADS-B
07:12PM 40.4377 -73.7482 122° Southeast 305 351 8,600 -1,740 Descending FlightAware ADS-B
07:12PM 40.4354 -73.7410 113° Southeast 305 351 8,500 -1,200 Descending FlightAware ADS-B
07:12PM 40.4279 -73.7137 110° East 303 349 8,200 -1,260 Descending FlightAware ADS-B
07:12PM 40.4246 -73.6988 106° East 300 345 8,000 -1,200 Descending FlightAware ADS-B
07:12PM 40.4236 -73.6885 97° East 296 341 7,900 -600 Descending FlightAware ADS-B
07:12PM 40.4236 -73.6814 90° East 292 336 7,900 -600 Level FlightAware ADS-B
07:12PM 40.4243 -73.6707 85° East 288 331 7,800 -1,200 Descending FlightAware ADS-B
07:12PM 40.4250 -73.6638 82° East 287 330 7,700 -1,200 Descending FlightAware ADS-B
07:13PM 40.4289 -73.6342 80° East 287 330 7,400 -1,080 Descending FlightAware ADS-B
07:13PM 40.4381 -73.5996 71° East 283 326 7,000 -960 Descending FlightAware ADS-B
07:13PM 40.4413 -73.5943 52° Northeast 281 323 7,000  Level FlightAware ADS-B
07:13PM 40.4527 -73.5800 44° Northeast 280 322 7,000  Level FlightAware ADS-B
07:14PM 40.4677 -73.5652 37° Northeast 278 320 7,000  Level FlightAware ADS-B
07:14PM 40.4863 -73.5502 32° Northeast 277 319 7,000  Level FlightAware ADS-B
07:14PM 40.5046 -73.5361 30° Northeast 275 316 7,000 -240 Level FlightAware ADS-B
07:14PM 40.5200 -73.5243 30° Northeast 274 315 6,900 -900 Descending FlightAware ADS-B
07:15PM 40.5431 -73.5067 30° Northeast 274 315 6,500 -1,260 Descending FlightAware ADS-B
07:15PM 40.5790 -73.4790 30° Northeast 273 314 5,800 -1,260 Descending FlightAware
07:16PM 40.6100 -73.4550 30° Northeast 271 312 5,200 -900 Descending FlightAware
07:16PM 40.6400 -73.4330 29° Northeast 257 296 5,000 -240 Descending FlightAware
07:17PM 40.6620 -73.4160 30° Northeast 237 273 5,000  Level FlightAware
07:17PM 40.6920 -73.3930 30° Northeast 226 260 5,000  Level FlightAware
07:18PM 40.7190 -73.3730 29° Northeast 229 264 5,000  Level FlightAware
07:18PM 40.7300 -73.3680 19° North 220 253 5,000  Level FlightAware
07:18PM 40.7550 -73.3820 337° Northwest 213 245 5,000 -360 Level FlightAware
07:19PM 40.7760 -73.4070 318° Northwest 210 242 4,700 -840 Descending FlightAware
07:19PM 40.7930 -73.4280 317° Northwest 209 241 4,300 -1,080 Descending FlightAware
07:20PM 40.8120 -73.4500 319° Northwest 209 241 3,800 -1,140 Descending FlightAware
07:20PM 40.8190 -73.5040 280° West 209 241 3,000 -660 Descending FlightAware
07:21PM 40.8150 -73.5470 263° West 215 247 3,000  Level FlightAware
07:21PM 40.8140 -73.5630 265° West 212 244 3,000 -240 Level FlightAware
07:21PM 40.8090 -73.5820 251° West 208 239 2,900 -660 Descending FlightAware
07:22PM 40.8040 -73.5960 245° Southwest 207 238 2,700 -900 Descending FlightAware
07:22PM 40.7920 -73.6280 244° Southwest 202 232 2,300 -780 Descending FlightAware
07:22PM 40.7860 -73.6400 237° Southwest 200 230 2,200 -480 Descending FlightAware
07:23PM 40.7670 -73.6600 219° Southwest 189 217 2,000 -240 Descending FlightAware
07:23PM 40.7430 -73.6790 211° Southwest 186 214 2,000 -300 Level FlightAware
07:24PM 40.7220 -73.6950 210° Southwest 191 220 1,700 -780 Descending FlightAware
07:24PM 40.7020 -73.7100 210° Southwest 174 200 1,300 -900 Descending FlightAware
07:25PM 40.6840 -73.7250 212° Southwest 146 168 900 -780 Descending FlightAware
07:25PM 40.6700 -73.7360 211° Southwest 129 148 600 -660 Descending FlightAware
07:26PM 40.6550 -73.7480 211° Southwest 125 144 300 -660 Descending FlightAware
07:26PM 40.6410 -73.7580 208° Southwest 125 144 -660 Descending FlightAware
07:26PM 40.6310 -73.7660 211° Southwest 40 46  Level FlightAware
07:27PM 40.6300 -73.7680 237° Southwest 30 35  Level FlightAware
07:27PM 40.6290 -73.7690 217° Southwest 21 24  Level FlightAware
07:27PM 40.6310 -73.7730 303° West 18 21  Level FlightAware
07:28PM 40.6320 -73.7750 303° West 21 24  Level FlightAware